Valley Station, Kentucky
Current Conditions -  °F | °C
As of 10:56 PM on Monday 22 Dec 2014 (Local Time) from KSDF Reporting Station
Light Rain Light Rain  
Wind Chill: 51°   Ceiling: 6000
Heat Index: 51°   Visibility: 9mi
Dew Point: 48°   Wind: 5mph
Humidity: 89%   Direction: 160°SSE
Pressure: 29.7"   Gusts: NA
Location:  38.0866°N, 85.8492°W
Report Text: KSDF 230356Z 16004KT 9SM -RA SCT021 BKN060 OVC075 11/09 A2970 RMK AO2 SLP058 P0004 T01060089
Loading
Personal Weather Stations






























Interactive Weather Map New forecast layout! Learn more

10-Day Weather Forecast

Advertisements
Track Severe Weather on mobile